sensor_id;sensor_type;location;lat;lon;timestamp;pressure;altitude;pressure_sealevel;temperature;humidity
31183;BME280;17813;0.000;0.000;2023-05-03T00:01:42;100482.94;;;9.66;54.95
31183;BME280;17813;0.000;0.000;2023-05-03T00:04:09;100489.09;;;9.67;55.13
31183;BME280;17813;0.000;0.000;2023-05-03T00:06:38;100483.75;;;9.68;55.17
31183;BME280;17813;0.000;0.000;2023-05-03T00:09:04;100491.81;;;9.65;54.96
31183;BME280;17813;0.000;0.000;2023-05-03T00:11:33;100486.59;;;9.64;54.89
31183;BME280;17813;0.000;0.000;2023-05-03T00:14:00;100489.50;;;9.58;55.08
31183;BME280;17813;0.000;0.000;2023-05-03T00:16:27;100499.09;;;9.60;55.25
31183;BME280;17813;0.000;0.000;2023-05-03T00:18:54;100485.84;;;9.60;55.22
31183;BME280;17813;0.000;0.000;2023-05-03T00:21:21;100488.44;;;9.62;55.13
31183;BME280;17813;0.000;0.000;2023-05-03T00:23:49;100488.50;;;9.60;55.19
31183;BME280;17813;0.000;0.000;2023-05-03T00:26:16;100488.56;;;9.59;55.78
31183;BME280;17813;0.000;0.000;2023-05-03T00:28:43;100485.06;;;9.58;55.19
31183;BME280;17813;0.000;0.000;2023-05-03T00:31:11;100481.63;;;9.56;55.36
31183;BME280;17813;0.000;0.000;2023-05-03T00:33:38;100486.03;;;9.56;55.58
31183;BME280;17813;0.000;0.000;2023-05-03T00:36:12;100482.53;;;9.55;55.69
31183;BME280;17813;0.000;0.000;2023-05-03T00:38:40;100483.28;;;9.59;55.33
31183;BME280;17813;0.000;0.000;2023-05-03T00:41:09;100475.38;;;9.57;55.14
31183;BME280;17813;0.000;0.000;2023-05-03T00:43:37;100479.22;;;9.50;55.36
31183;BME280;17813;0.000;0.000;2023-05-03T00:46:05;100467.88;;;9.47;55.63
31183;BME280;17813;0.000;0.000;2023-05-03T00:48:33;100473.56;;;9.38;55.73
31183;BME280;17813;0.000;0.000;2023-05-03T00:51:02;100470.19;;;9.34;56.44
31183;BME280;17813;0.000;0.000;2023-05-03T00:53:30;100472.16;;;9.29;56.28
31183;BME280;17813;0.000;0.000;2023-05-03T00:55:57;100467.91;;;9.25;56.24
31183;BME280;17813;0.000;0.000;2023-05-03T00:58:26;100463.34;;;9.28;56.19
31183;BME280;17813;0.000;0.000;2023-05-03T01:00:54;100476.53;;;9.30;55.86
31183;BME280;17813;0.000;0.000;2023-05-03T01:03:25;100463.16;;;9.33;56.28
31183;BME280;17813;0.000;0.000;2023-05-03T01:08:36;100462.06;;;9.17;56.63
31183;BME280;17813;0.000;0.000;2023-05-03T01:11:12;100464.97;;;9.11;57.10
31183;BME280;17813;0.000;0.000;2023-05-03T01:16:17;100462.56;;;9.05;57.22
31183;BME280;17813;0.000;0.000;2023-05-03T01:18:46;100453.81;;;9.02;56.96
31183;BME280;17813;0.000;0.000;2023-05-03T01:21:16;100455.78;;;8.97;57.18
31183;BME280;17813;0.000;0.000;2023-05-03T01:24:03;100454.19;;;8.93;57.08
31183;BME280;17813;0.000;0.000;2023-05-03T01:26:33;100460.97;;;9.00;57.54
31183;BME280;17813;0.000;0.000;2023-05-03T01:29:00;100462.69;;;9.01;57.92
31183;BME280;17813;0.000;0.000;2023-05-03T01:31:39;100456.88;;;8.92;57.80
31183;BME280;17813;0.000;0.000;2023-05-03T01:34:43;100451.97;;;8.83;58.89
31183;BME280;17813;0.000;0.000;2023-05-03T01:37:14;100465.19;;;8.83;59.04
31183;BME280;17813;0.000;0.000;2023-05-03T01:40:02;100462.91;;;8.74;59.44
31183;BME280;17813;0.000;0.000;2023-05-03T01:42:37;100461.16;;;8.73;58.97
31183;BME280;17813;0.000;0.000;2023-05-03T01:45:05;100464.84;;;8.68;58.88
31183;BME280;17813;0.000;0.000;2023-05-03T01:47:32;100465.59;;;8.72;59.07
31183;BME280;17813;0.000;0.000;2023-05-03T01:50:00;100467.50;;;8.68;59.16
31183;BME280;17813;0.000;0.000;2023-05-03T01:52:27;100453.53;;;8.65;59.50
31183;BME280;17813;0.000;0.000;2023-05-03T01:54:54;100451.94;;;8.61;59.05
31183;BME280;17813;0.000;0.000;2023-05-03T01:57:22;100462.03;;;8.50;60.02
31183;BME280;17813;0.000;0.000;2023-05-03T01:59:49;100457.72;;;8.47;59.75
31183;BME280;17813;0.000;0.000;2023-05-03T02:02:16;100456.00;;;8.46;59.45
31183;BME280;17813;0.000;0.000;2023-05-03T02:04:43;100461.19;;;8.49;60.12
31183;BME280;17813;0.000;0.000;2023-05-03T02:07:11;100459.41;;;8.50;60.19
31183;BME280;17813;0.000;0.000;2023-05-03T02:09:38;100462.84;;;8.52;60.70
31183;BME280;17813;0.000;0.000;2023-05-03T02:12:05;100468.03;;;8.55;60.59
31183;BME280;17813;0.000;0.000;2023-05-03T02:14:33;100468.94;;;8.54;60.59
31183;BME280;17813;0.000;0.000;2023-05-03T02:16:59;100462.78;;;8.53;60.28
31183;BME280;17813;0.000;0.000;2023-05-03T02:19:29;100462.03;;;8.50;60.93
31183;BME280;17813;0.000;0.000;2023-05-03T02:21:56;100464.88;;;8.45;61.36
31183;BME280;17813;0.000;0.000;2023-05-03T02:24:23;100456.25;;;8.40;60.83
31183;BME280;17813;0.000;0.000;2023-05-03T02:26:50;100456.34;;;8.37;60.39
31183;BME280;17813;0.000;0.000;2023-05-03T02:29:17;100457.38;;;8.33;60.29
31183;BME280;17813;0.000;0.000;2023-05-03T02:31:45;100461.03;;;8.29;60.37
31183;BME280;17813;0.000;0.000;2023-05-03T02:34:12;100456.59;;;8.29;60.44
31183;BME280;17813;0.000;0.000;2023-05-03T02:36:39;100458.50;;;8.26;60.73
31183;BME280;17813;0.000;0.000;2023-05-03T02:39:06;100460.50;;;8.19;60.37
31183;BME280;17813;0.000;0.000;2023-05-03T02:41:33;100455.22;;;8.19;60.63
31183;BME280;17813;0.000;0.000;2023-05-03T02:44:01;100455.66;;;8.07;60.47
31183;BME280;17813;0.000;0.000;2023-05-03T02:46:28;100459.34;;;8.03;60.66
31183;BME280;17813;0.000;0.000;2023-05-03T02:48:55;100457.72;;;7.99;60.83
31183;BME280;17813;0.000;0.000;2023-05-03T02:51:24;100464.88;;;7.95;61.21
31183;BME280;17813;0.000;0.000;2023-05-03T02:53:51;100473.78;;;7.93;61.54
31183;BME280;17813;0.000;0.000;2023-05-03T02:56:18;100466.00;;;7.88;62.12
31183;BME280;17813;0.000;0.000;2023-05-03T02:58:46;100475.06;;;7.81;62.15
31183;BME280;17813;0.000;0.000;2023-05-03T03:01:13;100472.59;;;7.75;62.35
31183;BME280;17813;0.000;0.000;2023-05-03T03:03:40;100471.03;;;7.69;62.64
31183;BME280;17813;0.000;0.000;2023-05-03T03:06:07;100475.50;;;7.67;62.56
31183;BME280;17813;0.000;0.000;2023-05-03T03:08:34;100469.53;;;7.62;62.52
31183;BME280;17813;0.000;0.000;2023-05-03T03:11:02;100468.59;;;7.63;62.37
31183;BME280;17813;0.000;0.000;2023-05-03T03:13:30;100472.06;;;7.65;62.43
31183;BME280;17813;0.000;0.000;2023-05-03T03:15:58;100473.72;;;7.68;62.31
31183;BME280;17813;0.000;0.000;2023-05-03T03:18:25;100478.16;;;7.67;62.48
31183;BME280;17813;0.000;0.000;2023-05-03T03:20:53;100479.88;;;7.68;62.59
31183;BME280;17813;0.000;0.000;2023-05-03T03:23:19;100486.03;;;7.69;63.38
31183;BME280;17813;0.000;0.000;2023-05-03T03:25:47;100490.34;;;7.71;63.65
31183;BME280;17813;0.000;0.000;2023-05-03T03:28:15;100486.06;;;7.67;63.67
31183;BME280;17813;0.000;0.000;2023-05-03T03:30:42;100499.16;;;7.70;63.62
31183;BME280;17813;0.000;0.000;2023-05-03T03:33:09;100506.28;;;7.68;63.50
31183;BME280;17813;0.000;0.000;2023-05-03T03:35:37;100508.06;;;7.68;64.16
31183;BME280;17813;0.000;0.000;2023-05-03T03:38:05;100507.13;;;7.69;63.85
31183;BME280;17813;0.000;0.000;2023-05-03T03:40:32;100508.88;;;7.70;64.27
31183;BME280;17813;0.000;0.000;2023-05-03T03:42:59;100509.78;;;7.69;64.74
31183;BME280;17813;0.000;0.000;2023-05-03T03:45:26;100509.84;;;7.67;64.66
31183;BME280;17813;0.000;0.000;2023-05-03T03:47:52;100510.78;;;7.65;64.77
31183;BME280;17813;0.000;0.000;2023-05-03T03:50:20;100505.63;;;7.62;64.61
31183;BME280;17813;0.000;0.000;2023-05-03T03:52:47;100502.94;;;7.63;64.45
31183;BME280;17813;0.000;0.000;2023-05-03T03:55:13;100507.25;;;7.66;63.95
31183;BME280;17813;0.000;0.000;2023-05-03T03:57:41;100508.88;;;7.70;64.16
31183;BME280;17813;0.000;0.000;2023-05-03T04:00:08;100516.84;;;7.68;64.25
31183;BME280;17813;0.000;0.000;2023-05-03T04:02:36;100508.81;;;7.71;64.43
31183;BME280;17813;0.000;0.000;2023-05-03T04:05:03;100516.63;;;7.74;64.47
31183;BME280;17813;0.000;0.000;2023-05-03T04:07:30;77224.00;;;-142.58;64.47
31183;BME280;17813;0.000;0.000;2023-05-03T04:09:59;100513.06;;;7.75;63.54
31183;BME280;17813;0.000;0.000;2023-05-03T04:12:27;100519.16;;;7.78;63.53
31183;BME280;17813;0.000;0.000;2023-05-03T04:14:57;100520.88;;;7.80;63.04
31183;BME280;17813;0.000;0.000;2023-05-03T04:17:24;100527.84;;;7.83;63.12
31183;BME280;17813;0.000;0.000;2023-05-03T04:19:52;100530.47;;;7.83;63.11
31183;BME280;17813;0.000;0.000;2023-05-03T04:22:19;100531.41;;;7.82;63.07
31183;BME280;17813;0.000;0.000;2023-05-03T04:24:45;100537.44;;;7.85;63.10
31183;BME280;17813;0.000;0.000;2023-05-03T04:27:13;100535.59;;;7.87;62.69
31183;BME280;17813;0.000;0.000;2023-05-03T04:29:40;100541.59;;;7.92;62.83
31183;BME280;17813;0.000;0.000;2023-05-03T04:32:07;100536.16;;;7.97;62.98
31183;BME280;17813;0.000;0.000;2023-05-03T04:34:35;100543.91;;;8.01;63.06
31183;BME280;17813;0.000;0.000;2023-05-03T04:37:03;100540.25;;;8.05;62.72
31183;BME280;17813;0.000;0.000;2023-05-03T04:39:30;100546.25;;;8.11;62.64
31183;BME280;17813;0.000;0.000;2023-05-03T04:41:57;100554.72;;;8.20;62.62
31183;BME280;17813;0.000;0.000;2023-05-03T04:44:24;100563.28;;;8.27;62.59
31183;BME280;17813;0.000;0.000;2023-05-03T04:46:51;100564.84;;;8.32;61.90
31183;BME280;17813;0.000;0.000;2023-05-03T04:49:18;100563.13;;;8.31;61.75
31183;BME280;17813;0.000;0.000;2023-05-03T04:51:45;100568.34;;;8.34;61.78
31183;BME280;17813;0.000;0.000;2023-05-03T04:54:12;100571.59;;;8.16;61.47
31183;BME280;17813;0.000;0.000;2023-05-03T04:56:39;100574.72;;;8.27;62.03
31183;BME280;17813;0.000;0.000;2023-05-03T04:59:06;100569.75;;;8.45;61.31
31183;BME280;17813;0.000;0.000;2023-05-03T05:01:34;100570.69;;;8.67;61.37
31183;BME280;17813;0.000;0.000;2023-05-03T05:04:00;100577.16;;;8.83;61.20
31183;BME280;17813;0.000;0.000;2023-05-03T05:06:27;100572.72;;;9.07;60.81
31183;BME280;17813;0.000;0.000;2023-05-03T05:08:54;100577.97;;;9.30;60.60
31183;BME280;17813;0.000;0.000;2023-05-03T05:11:21;100576.63;;;9.42;59.55
31183;BME280;17813;0.000;0.000;2023-05-03T05:13:49;100575.03;;;9.60;59.55
31183;BME280;17813;0.000;0.000;2023-05-03T05:16:16;100580.59;;;9.76;59.33
31183;BME280;17813;0.000;0.000;2023-05-03T05:18:43;100578.53;;;9.82;58.44
31183;BME280;17813;0.000;0.000;2023-05-03T05:21:10;100589.38;;;9.98;58.66
31183;BME280;17813;0.000;0.000;2023-05-03T05:23:38;100586.03;;;9.93;57.97
31183;BME280;17813;0.000;0.000;2023-05-03T05:26:08;100580.44;;;10.00;57.76
31183;BME280;17813;0.000;0.000;2023-05-03T05:28:39;100582.88;;;10.05;57.35
31183;BME280;17813;0.000;0.000;2023-05-03T05:31:07;100592.19;;;10.15;57.36
31183;BME280;17813;0.000;0.000;2023-05-03T05:33:34;100600.44;;;10.29;57.06
31183;BME280;17813;0.000;0.000;2023-05-03T05:36:01;100590.44;;;10.36;56.31
31183;BME280;17813;0.000;0.000;2023-05-03T05:38:28;100592.78;;;10.44;56.00
31183;BME280;17813;0.000;0.000;2023-05-03T05:40:55;100591.84;;;10.45;55.83
31183;BME280;17813;0.000;0.000;2023-05-03T05:43:23;100594.34;;;10.68;56.36
31183;BME280;17813;0.000;0.000;2023-05-03T05:45:50;100586.22;;;10.91;55.33
31183;BME280;17813;0.000;0.000;2023-05-03T05:48:17;100577.84;;;11.01;55.47
31183;BME280;17813;0.000;0.000;2023-05-03T05:50:46;100585.53;;;11.25;54.60
31183;BME280;17813;0.000;0.000;2023-05-03T05:53:20;100585.88;;;11.37;53.39
31183;BME280;17813;0.000;0.000;2023-05-03T05:55:49;100585.88;;;11.55;53.38
31183;BME280;17813;0.000;0.000;2023-05-03T05:58:16;100584.50;;;12.19;53.39
31183;BME280;17813;0.000;0.000;2023-05-03T06:00:43;100585.75;;;13.45;51.38
31183;BME280;17813;0.000;0.000;2023-05-03T06:03:11;100583.81;;;13.95;46.82
31183;BME280;17813;0.000;0.000;2023-05-03T06:05:37;100585.91;;;14.20;47.67
31183;BME280;17813;0.000;0.000;2023-05-03T06:08:05;100577.94;;;14.92;47.42
31183;BME280;17813;0.000;0.000;2023-05-03T06:10:32;100572.97;;;16.24;45.22
31183;BME280;17813;0.000;0.000;2023-05-03T06:12:59;100570.41;;;17.36;42.33
31183;BME280;17813;0.000;0.000;2023-05-03T06:15:29;100579.25;;;18.10;41.26
31183;BME280;17813;0.000;0.000;2023-05-03T06:18:01;100572.41;;;18.99;40.27
31183;BME280;17813;0.000;0.000;2023-05-03T06:20:32;100573.13;;;19.34;39.97
31183;BME280;17813;0.000;0.000;2023-05-03T06:22:59;100576.81;;;19.22;37.44
31183;BME280;17813;0.000;0.000;2023-05-03T06:25:27;100578.13;;;20.04;38.58
31183;BME280;17813;0.000;0.000;2023-05-03T06:27:54;100573.81;;;20.86;36.61
31183;BME280;17813;0.000;0.000;2023-05-03T06:30:21;100573.81;;;21.57;35.52
31183;BME280;17813;0.000;0.000;2023-05-03T06:32:51;100584.72;;;22.15;34.45
31183;BME280;17813;0.000;0.000;2023-05-03T06:35:18;100577.88;;;22.50;33.31
31183;BME280;17813;0.000;0.000;2023-05-03T06:37:47;100583.28;;;22.11;31.93
31183;BME280;17813;0.000;0.000;2023-05-03T06:40:15;100581.16;;;22.05;32.63
31183;BME280;17813;0.000;0.000;2023-05-03T06:42:43;100582.53;;;21.80;32.35
31183;BME280;17813;0.000;0.000;2023-05-03T06:45:10;100581.25;;;21.25;30.47
31183;BME280;17813;0.000;0.000;2023-05-03T06:47:38;100576.59;;;21.06;31.33
31183;BME280;17813;0.000;0.000;2023-05-03T06:50:08;100589.97;;;20.66;31.16
31183;BME280;17813;0.000;0.000;2023-05-03T06:52:35;100580.31;;;20.31;31.64
31183;BME280;17813;0.000;0.000;2023-05-03T06:55:03;100580.44;;;20.62;30.89
31183;BME280;17813;0.000;0.000;2023-05-03T06:57:30;100587.41;;;20.43;31.78
31183;BME280;17813;0.000;0.000;2023-05-03T06:59:57;100570.66;;;20.81;31.71
31183;BME280;17813;0.000;0.000;2023-05-03T07:02:24;100575.75;;;22.05;33.29
31183;BME280;17813;0.000;0.000;2023-05-03T07:04:52;100572.19;;;22.43;29.75
31183;BME280;17813;0.000;0.000;2023-05-03T07:07:19;100566.69;;;22.91;29.74
31183;BME280;17813;0.000;0.000;2023-05-03T07:09:46;100560.63;;;23.17;30.00
31183;BME280;17813;0.000;0.000;2023-05-03T07:12:14;100566.88;;;22.61;28.55
31183;BME280;17813;0.000;0.000;2023-05-03T07:14:42;100562.59;;;22.68;29.42
31183;BME280;17813;0.000;0.000;2023-05-03T07:17:09;100557.88;;;23.99;28.00
31183;BME280;17813;0.000;0.000;2023-05-03T07:19:37;100563.53;;;24.23;28.68
31183;BME280;17813;0.000;0.000;2023-05-03T07:22:04;100557.56;;;24.81;28.17
31183;BME280;17813;0.000;0.000;2023-05-03T07:24:32;100565.94;;;24.96;26.28
31183;BME280;17813;0.000;0.000;2023-05-03T07:26:59;100560.47;;;24.88;26.43
31183;BME280;17813;0.000;0.000;2023-05-03T07:29:26;100557.72;;;25.06;26.16
31183;BME280;17813;0.000;0.000;2023-05-03T07:31:55;100562.38;;;24.95;27.40
31183;BME280;17813;0.000;0.000;2023-05-03T07:34:24;100553.25;;;25.81;25.01
31183;BME280;17813;0.000;0.000;2023-05-03T07:36:52;100557.41;;;26.01;24.62
31183;BME280;17813;0.000;0.000;2023-05-03T07:39:20;100554.63;;;25.35;23.51
31183;BME280;17813;0.000;0.000;2023-05-03T07:41:47;100556.16;;;24.51;25.75
31183;BME280;17813;0.000;0.000;2023-05-03T07:44:15;100552.91;;;24.48;24.91
31183;BME280;17813;0.000;0.000;2023-05-03T07:46:42;100549.78;;;24.86;24.79
31183;BME280;17813;0.000;0.000;2023-05-03T07:49:10;100555.25;;;23.44;24.03
31183;BME280;17813;0.000;0.000;2023-05-03T07:51:38;100549.81;;;23.71;25.96
31183;BME280;17813;0.000;0.000;2023-05-03T07:54:06;100547.66;;;24.72;26.51
31183;BME280;17813;0.000;0.000;2023-05-03T07:56:33;100542.78;;;25.44;23.43
31183;BME280;17813;0.000;0.000;2023-05-03T07:59:01;100538.84;;;25.38;22.79
31183;BME280;17813;0.000;0.000;2023-05-03T08:01:28;100539.03;;;25.03;22.57
31183;BME280;17813;0.000;0.000;2023-05-03T08:03:55;100544.84;;;24.82;23.68
31183;BME280;17813;0.000;0.000;2023-05-03T08:06:22;100536.25;;;24.94;23.92
31183;BME280;17813;0.000;0.000;2023-05-03T08:08:50;100541.59;;;25.46;22.20
31183;BME280;17813;0.000;0.000;2023-05-03T08:11:18;100537.97;;;24.26;23.52
31183;BME280;17813;0.000;0.000;2023-05-03T08:13:48;100541.63;;;24.86;22.91
31183;BME280;17813;0.000;0.000;2023-05-03T08:16:22;100546.34;;;24.32;23.47
31183;BME280;17813;0.000;0.000;2023-05-03T08:18:49;100541.13;;;24.57;24.36
31183;BME280;17813;0.000;0.000;2023-05-03T08:21:17;100534.78;;;25.92;24.58
31183;BME280;17813;0.000;0.000;2023-05-03T08:23:44;100542.50;;;26.38;22.24
31183;BME280;17813;0.000;0.000;2023-05-03T08:26:11;100539.25;;;26.50;22.21
31183;BME280;17813;0.000;0.000;2023-05-03T08:28:39;100535.16;;;26.30;22.37
31183;BME280;17813;0.000;0.000;2023-05-03T08:31:06;100534.47;;;26.69;23.34
31183;BME280;17813;0.000;0.000;2023-05-03T08:33:36;100533.38;;;26.94;21.67
31183;BME280;17813;0.000;0.000;2023-05-03T08:36:03;100534.50;;;26.52;23.42
31183;BME280;17813;0.000;0.000;2023-05-03T08:38:32;100546.47;;;25.85;21.44
31183;BME280;17813;0.000;0.000;2023-05-03T08:41:03;100539.56;;;24.80;22.13
31183;BME280;17813;0.000;0.000;2023-05-03T08:43:42;100546.09;;;24.44;23.53
31183;BME280;17813;0.000;0.000;2023-05-03T08:46:15;100537.72;;;24.81;22.58
31183;BME280;17813;0.000;0.000;2023-05-03T08:48:50;100537.53;;;23.95;24.16
31183;BME280;17813;0.000;0.000;2023-05-03T08:51:22;100542.94;;;23.95;25.75
31183;BME280;17813;0.000;0.000;2023-05-03T08:53:49;100540.06;;;25.02;25.44
31183;BME280;17813;0.000;0.000;2023-05-03T08:56:29;100532.19;;;25.67;25.00
31183;BME280;17813;0.000;0.000;2023-05-03T08:58:59;100532.19;;;27.05;22.75
31183;BME280;17813;0.000;0.000;2023-05-03T09:01:36;100530.69;;;27.33;20.80
31183;BME280;17813;0.000;0.000;2023-05-03T09:04:05;100540.22;;;26.74;20.95
31183;BME280;17813;0.000;0.000;2023-05-03T09:06:36;100539.53;;;25.99;22.50
31183;BME280;17813;0.000;0.000;2023-05-03T09:09:08;100542.63;;;25.53;24.28
31183;BME280;17813;0.000;0.000;2023-05-03T09:11:37;100536.81;;;25.40;24.35
31183;BME280;17813;0.000;0.000;2023-05-03T09:14:12;100536.69;;;24.56;26.16
31183;BME280;17813;0.000;0.000;2023-05-03T09:16:41;100526.59;;;24.66;25.96
31183;BME280;17813;0.000;0.000;2023-05-03T09:19:13;100525.78;;;24.74;24.60
31183;BME280;17813;0.000;0.000;2023-05-03T09:21:44;100519.47;;;25.75;25.30
31183;BME280;17813;0.000;0.000;2023-05-03T09:24:18;100529.56;;;26.40;23.61
31183;BME280;17813;0.000;0.000;2023-05-03T09:26:49;100524.63;;;25.44;23.14
31183;BME280;17813;0.000;0.000;2023-05-03T09:29:35;100524.91;;;26.00;24.33
31183;BME280;17813;0.000;0.000;2023-05-03T09:32:05;100509.72;;;27.03;20.97
31183;BME280;17813;0.000;0.000;2023-05-03T09:34:34;100526.81;;;26.32;23.07
31183;BME280;17813;0.000;0.000;2023-05-03T09:37:02;100521.56;;;26.22;23.15
31183;BME280;17813;0.000;0.000;2023-05-03T09:39:30;100527.75;;;25.66;21.76
31183;BME280;17813;0.000;0.000;2023-05-03T09:41:57;100523.81;;;24.14;23.74
31183;BME280;17813;0.000;0.000;2023-05-03T09:44:44;100522.75;;;23.89;25.22
31183;BME280;17813;0.000;0.000;2023-05-03T09:47:14;100519.09;;;24.86;24.90
31183;BME280;17813;0.000;0.000;2023-05-03T09:49:43;100514.09;;;26.48;25.67
31183;BME280;17813;0.000;0.000;2023-05-03T09:52:10;100513.06;;;26.49;22.60
31183;BME280;17813;0.000;0.000;2023-05-03T09:54:38;100512.41;;;27.11;23.96
31183;BME280;17813;0.000;0.000;2023-05-03T09:57:07;100516.94;;;27.66;24.64
31183;BME280;17813;0.000;0.000;2023-05-03T09:59:35;100502.63;;;28.09;23.94
31183;BME280;17813;0.000;0.000;2023-05-03T10:02:06;100495.22;;;28.41;23.09
31183;BME280;17813;0.000;0.000;2023-05-03T10:04:49;100498.47;;;28.74;20.71
31183;BME280;17813;0.000;0.000;2023-05-03T10:07:18;100500.28;;;28.29;22.35
31183;BME280;17813;0.000;0.000;2023-05-03T10:09:48;100496.41;;;28.24;23.00
31183;BME280;17813;0.000;0.000;2023-05-03T10:12:17;100491.06;;;27.62;22.84
31183;BME280;17813;0.000;0.000;2023-05-03T10:14:46;100488.91;;;27.18;21.58
31183;BME280;17813;0.000;0.000;2023-05-03T10:17:23;100479.03;;;26.70;21.15
31183;BME280;17813;0.000;0.000;2023-05-03T10:25:31;100487.38;;;25.79;24.00
31183;BME280;17813;0.000;0.000;2023-05-03T10:28:06;100485.81;;;25.10;21.74
31183;BME280;17813;0.000;0.000;2023-05-03T10:30:38;100488.44;;;23.98;23.39
31183;BME280;17813;0.000;0.000;2023-05-03T10:35:58;100491.13;;;22.33;24.63
31183;BME280;17813;0.000;0.000;2023-05-03T10:38:28;100498.81;;;21.90;26.24
31183;BME280;17813;0.000;0.000;2023-05-03T10:40:56;100492.03;;;22.05;26.83
31183;BME280;17813;0.000;0.000;2023-05-03T10:46:05;100483.63;;;22.18;27.77
31183;BME280;17813;0.000;0.000;2023-05-03T10:48:37;100477.81;;;22.59;29.07
31183;BME280;17813;0.000;0.000;2023-05-03T10:53:56;100496.97;;;21.90;29.94
31183;BME280;17813;0.000;0.000;2023-05-03T10:56:24;100496.41;;;21.87;28.85
31183;BME280;17813;0.000;0.000;2023-05-03T10:58:51;100488.00;;;21.01;28.04
31183;BME280;17813;0.000;0.000;2023-05-03T11:01:23;100490.28;;;20.75;30.77
31183;BME280;17813;0.000;0.000;2023-05-03T11:06:35;100490.00;;;20.27;28.92
31183;BME280;17813;0.000;0.000;2023-05-03T11:09:06;100492.50;;;19.66;29.83
31183;BME280;17813;0.000;0.000;2023-05-03T11:11:36;100499.56;;;19.24;32.34
31183;BME280;17813;0.000;0.000;2023-05-03T11:14:05;100490.81;;;19.54;30.84
31183;BME280;17813;0.000;0.000;2023-05-03T11:16:35;100491.81;;;19.42;30.13
31183;BME280;17813;0.000;0.000;2023-05-03T11:19:05;100491.16;;;19.61;30.95
31183;BME280;17813;0.000;0.000;2023-05-03T11:21:32;100494.38;;;19.86;33.08
31183;BME280;17813;0.000;0.000;2023-05-03T11:24:01;100485.63;;;19.73;30.25
31183;BME280;17813;0.000;0.000;2023-05-03T11:26:35;100489.78;;;19.23;29.62
31183;BME280;17813;0.000;0.000;2023-05-03T11:29:03;100478.44;;;18.97;29.39
31183;BME280;17813;0.000;0.000;2023-05-03T11:31:30;100477.09;;;18.58;32.64
31183;BME280;17813;0.000;0.000;2023-05-03T11:33:58;100477.84;;;18.71;32.63
31183;BME280;17813;0.000;0.000;2023-05-03T11:36:26;100475.03;;;18.95;33.36
31183;BME280;17813;0.000;0.000;2023-05-03T11:38:53;100468.75;;;19.17;32.07
31183;BME280;17813;0.000;0.000;2023-05-03T11:41:20;100472.31;;;19.06;31.19
31183;BME280;17813;0.000;0.000;2023-05-03T11:43:48;100477.94;;;18.36;32.08
31183;BME280;17813;0.000;0.000;2023-05-03T11:46:27;100481.56;;;17.89;31.94
31183;BME280;17813;0.000;0.000;2023-05-03T11:49:09;100474.13;;;17.92;32.94
31183;BME280;17813;0.000;0.000;2023-05-03T11:51:37;100485.28;;;17.51;32.34
31183;BME280;17813;0.000;0.000;2023-05-03T11:54:05;100484.00;;;16.84;33.73
31183;BME280;17813;0.000;0.000;2023-05-03T11:56:32;100488.63;;;17.18;34.79
31183;BME280;17813;0.000;0.000;2023-05-03T11:59:02;100484.56;;;17.73;35.55
31183;BME280;17813;0.000;0.000;2023-05-03T12:01:37;100476.34;;;17.98;35.21
31183;BME280;17813;0.000;0.000;2023-05-03T12:04:07;100483.03;;;17.93;33.68
31183;BME280;17813;0.000;0.000;2023-05-03T12:06:35;100480.09;;;17.85;33.89
31183;BME280;17813;0.000;0.000;2023-05-03T12:09:13;100480.69;;;17.64;32.34
31183;BME280;17813;0.000;0.000;2023-05-03T12:11:41;100477.13;;;17.77;32.46
31183;BME280;17813;0.000;0.000;2023-05-03T12:14:08;100474.38;;;17.42;33.11
31183;BME280;17813;0.000;0.000;2023-05-03T12:16:51;100473.50;;;17.17;33.87
31183;BME280;17813;0.000;0.000;2023-05-03T12:19:27;100476.25;;;17.28;34.94
31183;BME280;17813;0.000;0.000;2023-05-03T12:21:54;100474.16;;;17.68;35.63
31183;BME280;17813;0.000;0.000;2023-05-03T12:24:22;100470.78;;;18.13;37.11
31183;BME280;17813;0.000;0.000;2023-05-03T12:26:49;100468.41;;;18.43;35.63
31183;BME280;17813;0.000;0.000;2023-05-03T12:29:17;100465.59;;;18.56;34.09
31183;BME280;17813;0.000;0.000;2023-05-03T12:31:44;100461.72;;;18.82;36.20
31183;BME280;17813;0.000;0.000;2023-05-03T12:34:12;100466.75;;;18.76;33.48
31183;BME280;17813;0.000;0.000;2023-05-03T12:36:40;100464.25;;;18.39;32.89
31183;BME280;17813;0.000;0.000;2023-05-03T12:39:08;100470.22;;;18.20;35.75
31183;BME280;17813;0.000;0.000;2023-05-03T12:41:36;100459.97;;;17.90;33.94
31183;BME280;17813;0.000;0.000;2023-05-03T12:44:04;100463.97;;;17.85;34.74
31183;BME280;17813;0.000;0.000;2023-05-03T12:46:31;100455.38;;;18.04;36.58
31183;BME280;17813;0.000;0.000;2023-05-03T12:48:59;100441.44;;;17.87;33.57
31183;BME280;17813;0.000;0.000;2023-05-03T12:51:29;100446.59;;;18.02;35.82
31183;BME280;17813;0.000;0.000;2023-05-03T12:53:57;100440.75;;;18.19;36.25
31183;BME280;17813;0.000;0.000;2023-05-03T12:56:24;100444.97;;;18.45;35.43
31183;BME280;17813;0.000;0.000;2023-05-03T12:58:51;100444.50;;;17.94;33.96
31183;BME280;17813;0.000;0.000;2023-05-03T13:01:18;100445.50;;;17.69;35.84
31183;BME280;17813;0.000;0.000;2023-05-03T13:03:47;100466.75;;;17.72;34.69
31183;BME280;17813;0.000;0.000;2023-05-03T13:06:14;100444.13;;;17.63;34.68
31183;BME280;17813;0.000;0.000;2023-05-03T13:08:41;100446.13;;;17.73;34.55
31183;BME280;17813;0.000;0.000;2023-05-03T13:11:08;100440.50;;;17.41;34.71
31183;BME280;17813;0.000;0.000;2023-05-03T13:13:35;100431.16;;;17.57;35.32
31183;BME280;17813;0.000;0.000;2023-05-03T13:16:02;100432.91;;;17.93;36.21
31183;BME280;17813;0.000;0.000;2023-05-03T13:18:29;100424.22;;;18.36;37.02
31183;BME280;17813;0.000;0.000;2023-05-03T13:20:58;100417.63;;;18.40;35.79
31183;BME280;17813;0.000;0.000;2023-05-03T13:23:25;100418.84;;;18.25;36.05
31183;BME280;17813;0.000;0.000;2023-05-03T13:25:53;100418.56;;;18.17;35.33
31183;BME280;17813;0.000;0.000;2023-05-03T13:28:24;100420.78;;;17.77;33.79
31183;BME280;17813;0.000;0.000;2023-05-03T13:30:55;100420.84;;;17.64;34.81
31183;BME280;17813;0.000;0.000;2023-05-03T13:33:23;100422.50;;;17.54;34.97
31183;BME280;17813;0.000;0.000;2023-05-03T13:35:50;100427.59;;;17.46;35.94